Terminal Aerodrome Forecast
Issued by NWS Pueblo, CO

Home | Current Version | Previous Version | Text Only | Print | Product List | Glossary On
Versions: 1 2 3 4 5 6 7 8 9 10 11 12 13 14 15 16 17 18 19 20 21 22 23 24 25 26 27 28 29 30 31 32 33 34
000
FTUS45 KPUB 030534
TAFPUB
TAF
KPUB 030534Z 0306/0406 02015G25KT P6SM SCT060 BKN140
     FM030800 05012KT P6SM SCT060 BKN140
     FM031100 VRB05KT P6SM SCT120 SCT200
     FM031900 12008KT P6SM SCT110 BKN150
     FM032200 12008KT P6SM VCTS SCT080CB BKN120=

USA.gov is the U.S. government's official web portal to all federal, state and local government web resources and services.